sensor_id;sensor_type;location;lat;lon;timestamp;temperature;humidity
13798;DHT22;6970;51.340;3.240;2022-09-09T00:02:08;16.30;99.90
13798;DHT22;6970;51.340;3.240;2022-09-09T00:04:38;16.20;99.90
13798;DHT22;6970;51.340;3.240;2022-09-09T00:07:18;16.20;99.90
13798;DHT22;6970;51.340;3.240;2022-09-09T00:10:04;16.20;99.90
13798;DHT22;6970;51.340;3.240;2022-09-09T00:18:23;16.10;99.90
13798;DHT22;6970;51.340;3.240;2022-09-09T00:21:33;16.10;99.90
13798;DHT22;6970;51.340;3.240;2022-09-09T00:24:55;16.10;99.90
13798;DHT22;6970;51.340;3.240;2022-09-09T00:27:09;16.10;99.90
13798;DHT22;6970;51.340;3.240;2022-09-09T00:29:47;16.10;99.90
13798;DHT22;6970;51.340;3.240;2022-09-09T00:32:18;16.10;99.90
13798;DHT22;6970;51.340;3.240;2022-09-09T00:34:58;16.10;99.90
13798;DHT22;6970;51.340;3.240;2022-09-09T00:37:27;16.10;99.90
13798;DHT22;6970;51.340;3.240;2022-09-09T00:39:59;16.00;99.90
13798;DHT22;6970;51.340;3.240;2022-09-09T00:42:43;16.00;99.90
13798;DHT22;6970;51.340;3.240;2022-09-09T00:51:00;15.90;99.90
13798;DHT22;6970;51.340;3.240;2022-09-09T00:53:39;15.90;99.90
13798;DHT22;6970;51.340;3.240;2022-09-09T00:56:14;15.90;99.90
13798;DHT22;6970;51.340;3.240;2022-09-09T01:01:51;15.90;99.90
13798;DHT22;6970;51.340;3.240;2022-09-09T01:04:27;15.90;99.90
13798;DHT22;6970;51.340;3.240;2022-09-09T01:07:06;15.90;99.90
13798;DHT22;6970;51.340;3.240;2022-09-09T01:18:54;16.00;99.90
13798;DHT22;6970;51.340;3.240;2022-09-09T01:24:33;16.00;99.90
13798;DHT22;6970;51.340;3.240;2022-09-09T01:27:03;16.00;99.90
13798;DHT22;6970;51.340;3.240;2022-09-09T01:29:32;16.00;99.90
13798;DHT22;6970;51.340;3.240;2022-09-09T01:32:01;16.00;99.90
13798;DHT22;6970;51.340;3.240;2022-09-09T01:34:36;16.00;99.90
13798;DHT22;6970;51.340;3.240;2022-09-09T01:37:08;16.00;99.90
13798;DHT22;6970;51.340;3.240;2022-09-09T01:39:37;16.00;99.90
13798;DHT22;6970;51.340;3.240;2022-09-09T01:42:08;15.90;99.90
13798;DHT22;6970;51.340;3.240;2022-09-09T01:44:37;15.90;99.90
13798;DHT22;6970;51.340;3.240;2022-09-09T01:47:06;15.90;99.90
13798;DHT22;6970;51.340;3.240;2022-09-09T01:49:33;15.90;99.90
13798;DHT22;6970;51.340;3.240;2022-09-09T01:52:00;15.90;99.90
13798;DHT22;6970;51.340;3.240;2022-09-09T01:54:30;15.90;99.90
13798;DHT22;6970;51.340;3.240;2022-09-09T02:05:37;15.80;99.90
13798;DHT22;6970;51.340;3.240;2022-09-09T02:08:10;15.80;99.90
13798;DHT22;6970;51.340;3.240;2022-09-09T02:10:50;15.80;99.90
13798;DHT22;6970;51.340;3.240;2022-09-09T02:13:22;15.80;99.90
13798;DHT22;6970;51.340;3.240;2022-09-09T02:16:22;15.80;99.90
13798;DHT22;6970;51.340;3.240;2022-09-09T02:19:13;15.80;99.90
13798;DHT22;6970;51.340;3.240;2022-09-09T02:21:44;15.80;99.90
13798;DHT22;6970;51.340;3.240;2022-09-09T02:24:13;15.80;99.90
13798;DHT22;6970;51.340;3.240;2022-09-09T02:26:44;15.80;99.90
13798;DHT22;6970;51.340;3.240;2022-09-09T02:29:16;15.90;99.90
13798;DHT22;6970;51.340;3.240;2022-09-09T02:31:46;15.90;99.90
13798;DHT22;6970;51.340;3.240;2022-09-09T02:34:18;15.90;99.90
13798;DHT22;6970;51.340;3.240;2022-09-09T02:36:47;16.00;99.90
13798;DHT22;6970;51.340;3.240;2022-09-09T02:39:15;16.00;99.90
13798;DHT22;6970;51.340;3.240;2022-09-09T02:41:42;16.00;99.90
13798;DHT22;6970;51.340;3.240;2022-09-09T02:44:16;16.10;99.90
13798;DHT22;6970;51.340;3.240;2022-09-09T02:52:43;16.10;99.90
13798;DHT22;6970;51.340;3.240;2022-09-09T02:57:56;16.10;99.90
13798;DHT22;6970;51.340;3.240;2022-09-09T03:00:26;16.20;99.90
13798;DHT22;6970;51.340;3.240;2022-09-09T03:02:54;16.20;99.90
13798;DHT22;6970;51.340;3.240;2022-09-09T03:05:21;16.20;99.90
13798;DHT22;6970;51.340;3.240;2022-09-09T03:07:49;16.20;99.90
13798;DHT22;6970;51.340;3.240;2022-09-09T03:10:17;16.20;99.90
13798;DHT22;6970;51.340;3.240;2022-09-09T03:12:44;16.20;99.90
13798;DHT22;6970;51.340;3.240;2022-09-09T03:15:11;16.20;99.90
13798;DHT22;6970;51.340;3.240;2022-09-09T03:17:38;16.20;99.90
13798;DHT22;6970;51.340;3.240;2022-09-09T03:20:05;16.20;99.90
13798;DHT22;6970;51.340;3.240;2022-09-09T03:22:32;16.20;99.90
13798;DHT22;6970;51.340;3.240;2022-09-09T03:24:59;16.20;99.90
13798;DHT22;6970;51.340;3.240;2022-09-09T03:27:26;16.20;99.90
13798;DHT22;6970;51.340;3.240;2022-09-09T03:29:53;16.10;99.90
13798;DHT22;6970;51.340;3.240;2022-09-09T03:32:21;16.10;99.90
13798;DHT22;6970;51.340;3.240;2022-09-09T03:34:49;16.10;99.90
13798;DHT22;6970;51.340;3.240;2022-09-09T03:37:16;16.10;99.90
13798;DHT22;6970;51.340;3.240;2022-09-09T03:39:44;16.10;99.90
13798;DHT22;6970;51.340;3.240;2022-09-09T03:42:15;16.00;99.90
13798;DHT22;6970;51.340;3.240;2022-09-09T03:44:47;16.10;99.90
13798;DHT22;6970;51.340;3.240;2022-09-09T03:47:19;16.00;99.90
13798;DHT22;6970;51.340;3.240;2022-09-09T03:49:46;16.00;99.90
13798;DHT22;6970;51.340;3.240;2022-09-09T03:52:15;16.00;99.90
13798;DHT22;6970;51.340;3.240;2022-09-09T03:54:48;16.00;99.90
13798;DHT22;6970;51.340;3.240;2022-09-09T03:57:15;16.00;99.90
13798;DHT22;6970;51.340;3.240;2022-09-09T03:59:43;15.90;99.90
13798;DHT22;6970;51.340;3.240;2022-09-09T04:02:10;15.90;99.90
13798;DHT22;6970;51.340;3.240;2022-09-09T04:04:37;15.90;99.90
13798;DHT22;6970;51.340;3.240;2022-09-09T04:07:04;15.90;99.90
13798;DHT22;6970;51.340;3.240;2022-09-09T04:09:33;15.80;99.90
13798;DHT22;6970;51.340;3.240;2022-09-09T04:12:01;15.80;99.90
13798;DHT22;6970;51.340;3.240;2022-09-09T04:14:28;15.80;99.90
13798;DHT22;6970;51.340;3.240;2022-09-09T04:16:55;15.80;99.90
13798;DHT22;6970;51.340;3.240;2022-09-09T04:19:25;15.70;99.90
13798;DHT22;6970;51.340;3.240;2022-09-09T04:21:53;15.70;99.90
13798;DHT22;6970;51.340;3.240;2022-09-09T04:24:20;15.70;99.90
13798;DHT22;6970;51.340;3.240;2022-09-09T04:26:48;15.60;99.90
13798;DHT22;6970;51.340;3.240;2022-09-09T04:29:15;15.60;99.90
13798;DHT22;6970;51.340;3.240;2022-09-09T04:31:43;15.60;99.90
13798;DHT22;6970;51.340;3.240;2022-09-09T04:34:11;15.60;99.90
13798;DHT22;6970;51.340;3.240;2022-09-09T04:36:38;15.60;99.90
13798;DHT22;6970;51.340;3.240;2022-09-09T04:39:07;15.60;99.90
13798;DHT22;6970;51.340;3.240;2022-09-09T04:41:33;15.50;99.90
13798;DHT22;6970;51.340;3.240;2022-09-09T04:44:01;15.60;99.90
13798;DHT22;6970;51.340;3.240;2022-09-09T04:46:28;15.50;99.90
13798;DHT22;6970;51.340;3.240;2022-09-09T04:48:55;15.60;99.90
13798;DHT22;6970;51.340;3.240;2022-09-09T04:51:21;15.50;99.90
13798;DHT22;6970;51.340;3.240;2022-09-09T04:53:48;15.60;99.90
13798;DHT22;6970;51.340;3.240;2022-09-09T04:56:18;15.50;99.90
13798;DHT22;6970;51.340;3.240;2022-09-09T04:58:46;15.60;99.90
13798;DHT22;6970;51.340;3.240;2022-09-09T05:01:20;15.60;99.90
13798;DHT22;6970;51.340;3.240;2022-09-09T05:03:48;15.60;99.90
13798;DHT22;6970;51.340;3.240;2022-09-09T05:06:17;15.60;99.90
13798;DHT22;6970;51.340;3.240;2022-09-09T05:08:45;15.50;99.90
13798;DHT22;6970;51.340;3.240;2022-09-09T05:11:20;15.60;99.90
13798;DHT22;6970;51.340;3.240;2022-09-09T05:13:48;15.50;99.90
13798;DHT22;6970;51.340;3.240;2022-09-09T05:16:17;15.60;99.90
13798;DHT22;6970;51.340;3.240;2022-09-09T05:18:45;15.60;99.90
13798;DHT22;6970;51.340;3.240;2022-09-09T05:21:14;15.60;99.90
13798;DHT22;6970;51.340;3.240;2022-09-09T05:23:41;15.60;99.90
13798;DHT22;6970;51.340;3.240;2022-09-09T05:26:12;15.60;99.90
13798;DHT22;6970;51.340;3.240;2022-09-09T05:28:43;15.70;99.90
13798;DHT22;6970;51.340;3.240;2022-09-09T05:31:11;15.70;99.90
13798;DHT22;6970;51.340;3.240;2022-09-09T05:33:41;15.70;99.90
13798;DHT22;6970;51.340;3.240;2022-09-09T05:36:14;15.70;99.90
13798;DHT22;6970;51.340;3.240;2022-09-09T05:38:42;15.70;99.90
13798;DHT22;6970;51.340;3.240;2022-09-09T05:41:11;15.70;99.90
13798;DHT22;6970;51.340;3.240;2022-09-09T05:43:38;15.70;99.90
13798;DHT22;6970;51.340;3.240;2022-09-09T05:48:36;15.80;99.90
13798;DHT22;6970;51.340;3.240;2022-09-09T05:51:05;15.80;99.90
13798;DHT22;6970;51.340;3.240;2022-09-09T05:53:36;15.90;99.90
13798;DHT22;6970;51.340;3.240;2022-09-09T05:56:08;15.90;99.90
13798;DHT22;6970;51.340;3.240;2022-09-09T05:58:40;15.90;99.90
13798;DHT22;6970;51.340;3.240;2022-09-09T06:01:24;15.80;99.90
13798;DHT22;6970;51.340;3.240;2022-09-09T06:03:52;15.90;99.90
13798;DHT22;6970;51.340;3.240;2022-09-09T06:06:21;15.90;99.90
13798;DHT22;6970;51.340;3.240;2022-09-09T06:08:52;15.90;99.90
13798;DHT22;6970;51.340;3.240;2022-09-09T06:11:24;15.90;99.90
13798;DHT22;6970;51.340;3.240;2022-09-09T06:13:53;15.90;99.90
13798;DHT22;6970;51.340;3.240;2022-09-09T06:16:23;16.00;99.90
13798;DHT22;6970;51.340;3.240;2022-09-09T06:18:51;15.90;99.90
13798;DHT22;6970;51.340;3.240;2022-09-09T06:21:20;16.00;99.90
13798;DHT22;6970;51.340;3.240;2022-09-09T06:23:48;16.00;99.90
13798;DHT22;6970;51.340;3.240;2022-09-09T06:26:20;16.10;99.90
13798;DHT22;6970;51.340;3.240;2022-09-09T06:28:49;16.20;99.90
13798;DHT22;6970;51.340;3.240;2022-09-09T06:31:18;16.40;99.90
13798;DHT22;6970;51.340;3.240;2022-09-09T06:33:54;16.60;99.90
13798;DHT22;6970;51.340;3.240;2022-09-09T06:38:53;16.90;99.90
13798;DHT22;6970;51.340;3.240;2022-09-09T06:41:21;16.90;99.90
13798;DHT22;6970;51.340;3.240;2022-09-09T06:43:49;16.90;99.90
13798;DHT22;6970;51.340;3.240;2022-09-09T06:46:19;17.00;99.90
13798;DHT22;6970;51.340;3.240;2022-09-09T06:48:48;17.00;99.90
13798;DHT22;6970;51.340;3.240;2022-09-09T06:51:20;17.00;99.90
13798;DHT22;6970;51.340;3.240;2022-09-09T06:53:51;16.90;99.90
13798;DHT22;6970;51.340;3.240;2022-09-09T06:58:50;16.60;99.90
13798;DHT22;6970;51.340;3.240;2022-09-09T07:01:21;16.50;99.90
13798;DHT22;6970;51.340;3.240;2022-09-09T07:03:53;16.50;99.90
13798;DHT22;6970;51.340;3.240;2022-09-09T07:06:27;16.40;99.90
13798;DHT22;6970;51.340;3.240;2022-09-09T07:08:56;16.30;99.90
13798;DHT22;6970;51.340;3.240;2022-09-09T07:11:26;16.30;99.90
13798;DHT22;6970;51.340;3.240;2022-09-09T07:13:54;16.30;99.90
13798;DHT22;6970;51.340;3.240;2022-09-09T07:16:22;16.20;99.90
13798;DHT22;6970;51.340;3.240;2022-09-09T07:18:52;16.20;99.90
13798;DHT22;6970;51.340;3.240;2022-09-09T07:21:19;16.20;99.90
13798;DHT22;6970;51.340;3.240;2022-09-09T07:23:48;16.20;99.90
13798;DHT22;6970;51.340;3.240;2022-09-09T07:26:19;16.20;99.90
13798;DHT22;6970;51.340;3.240;2022-09-09T07:28:47;16.20;99.90
13798;DHT22;6970;51.340;3.240;2022-09-09T07:31:21;16.20;99.90
13798;DHT22;6970;51.340;3.240;2022-09-09T07:33:48;16.20;99.90
13798;DHT22;6970;51.340;3.240;2022-09-09T07:36:22;16.20;99.90
13798;DHT22;6970;51.340;3.240;2022-09-09T07:38:52;16.20;99.90
13798;DHT22;6970;51.340;3.240;2022-09-09T07:41:37;16.20;99.90
13798;DHT22;6970;51.340;3.240;2022-09-09T07:44:10;16.20;99.90
13798;DHT22;6970;51.340;3.240;2022-09-09T07:46:38;16.30;99.90
13798;DHT22;6970;51.340;3.240;2022-09-09T07:49:09;16.30;99.90
13798;DHT22;6970;51.340;3.240;2022-09-09T07:51:39;16.30;99.90
13798;DHT22;6970;51.340;3.240;2022-09-09T07:54:08;16.30;99.90
13798;DHT22;6970;51.340;3.240;2022-09-09T07:56:36;16.30;99.90
13798;DHT22;6970;51.340;3.240;2022-09-09T07:59:07;16.30;99.90
13798;DHT22;6970;51.340;3.240;2022-09-09T08:01:36;16.30;99.90
13798;DHT22;6970;51.340;3.240;2022-09-09T08:04:17;16.30;99.90
13798;DHT22;6970;51.340;3.240;2022-09-09T08:06:50;16.40;99.90
13798;DHT22;6970;51.340;3.240;2022-09-09T08:09:18;16.40;99.90
13798;DHT22;6970;51.340;3.240;2022-09-09T08:11:46;16.50;99.90
13798;DHT22;6970;51.340;3.240;2022-09-09T08:14:14;16.60;99.90
13798;DHT22;6970;51.340;3.240;2022-09-09T08:16:47;16.70;99.90
13798;DHT22;6970;51.340;3.240;2022-09-09T08:19:14;16.70;99.90
13798;DHT22;6970;51.340;3.240;2022-09-09T08:21:44;16.70;99.90
13798;DHT22;6970;51.340;3.240;2022-09-09T08:24:12;16.70;99.90
13798;DHT22;6970;51.340;3.240;2022-09-09T08:26:45;16.90;99.90
13798;DHT22;6970;51.340;3.240;2022-09-09T08:29:14;17.20;99.90
13798;DHT22;6970;51.340;3.240;2022-09-09T08:31:52;17.30;99.90
13798;DHT22;6970;51.340;3.240;2022-09-09T08:34:21;17.40;99.90
13798;DHT22;6970;51.340;3.240;2022-09-09T08:36:49;17.30;99.90
13798;DHT22;6970;51.340;3.240;2022-09-09T08:39:19;17.30;99.90
13798;DHT22;6970;51.340;3.240;2022-09-09T08:45:01;17.30;99.90
13798;DHT22;6970;51.340;3.240;2022-09-09T08:47:51;17.30;99.90
13798;DHT22;6970;51.340;3.240;2022-09-09T08:50:26;17.60;99.90
13798;DHT22;6970;51.340;3.240;2022-09-09T09:00:51;18.30;99.90
13798;DHT22;6970;51.340;3.240;2022-09-09T09:08:42;18.40;99.90
13798;DHT22;6970;51.340;3.240;2022-09-09T09:11:10;18.30;99.90
13798;DHT22;6970;51.340;3.240;2022-09-09T09:13:48;18.20;99.90
13798;DHT22;6970;51.340;3.240;2022-09-09T09:19:00;18.00;99.90
13798;DHT22;6970;51.340;3.240;2022-09-09T09:21:44;18.00;99.90
13798;DHT22;6970;51.340;3.240;2022-09-09T09:24:20;18.10;99.90
13798;DHT22;6970;51.340;3.240;2022-09-09T09:26:50;18.10;99.90
13798;DHT22;6970;51.340;3.240;2022-09-09T09:29:19;18.20;99.90
13798;DHT22;6970;51.340;3.240;2022-09-09T09:31:55;18.30;99.90
13798;DHT22;6970;51.340;3.240;2022-09-09T09:34:24;18.50;99.90
13798;DHT22;6970;51.340;3.240;2022-09-09T09:36:57;18.50;99.90
13798;DHT22;6970;51.340;3.240;2022-09-09T09:39:31;18.40;99.90
13798;DHT22;6970;51.340;3.240;2022-09-09T09:42:23;18.20;99.90
13798;DHT22;6970;51.340;3.240;2022-09-09T09:44:50;18.10;99.90
13798;DHT22;6970;51.340;3.240;2022-09-09T09:47:22;18.00;99.90
13798;DHT22;6970;51.340;3.240;2022-09-09T09:49:58;17.90;99.90
13798;DHT22;6970;51.340;3.240;2022-09-09T09:52:28;17.90;99.90
13798;DHT22;6970;51.340;3.240;2022-09-09T09:54:57;17.80;99.90
13798;DHT22;6970;51.340;3.240;2022-09-09T09:57:33;17.80;99.90
13798;DHT22;6970;51.340;3.240;2022-09-09T10:02:46;17.80;99.90
13798;DHT22;6970;51.340;3.240;2022-09-09T10:08:25;18.00;99.90
13798;DHT22;6970;51.340;3.240;2022-09-09T10:14:04;18.20;99.90
13798;DHT22;6970;51.340;3.240;2022-09-09T10:19:36;19.10;99.90
13798;DHT22;6970;51.340;3.240;2022-09-09T10:22:19;19.00;99.90
13798;DHT22;6970;51.340;3.240;2022-09-09T10:35:24;17.90;99.90
13798;DHT22;6970;51.340;3.240;2022-09-09T10:49:45;17.60;99.90
13798;DHT22;6970;51.340;3.240;2022-09-09T10:52:24;17.50;99.90
13798;DHT22;6970;51.340;3.240;2022-09-09T10:55:16;17.50;99.90
13798;DHT22;6970;51.340;3.240;2022-09-09T10:57:49;17.40;99.90
13798;DHT22;6970;51.340;3.240;2022-09-09T11:00:22;17.30;99.90
13798;DHT22;6970;51.340;3.240;2022-09-09T11:03:01;17.30;99.90
13798;DHT22;6970;51.340;3.240;2022-09-09T11:05:46;17.30;99.90
13798;DHT22;6970;51.340;3.240;2022-09-09T11:08:21;17.30;99.90
13798;DHT22;6970;51.340;3.240;2022-09-09T11:11:03;17.30;99.90
13798;DHT22;6970;51.340;3.240;2022-09-09T11:16:25;17.30;99.90
13798;DHT22;6970;51.340;3.240;2022-09-09T11:19:04;17.40;99.90
13798;DHT22;6970;51.340;3.240;2022-09-09T11:21:44;17.40;99.90
13798;DHT22;6970;51.340;3.240;2022-09-09T11:24:30;17.50;99.90
13798;DHT22;6970;51.340;3.240;2022-09-09T11:27:14;17.50;99.90
13798;DHT22;6970;51.340;3.240;2022-09-09T11:30:26;17.60;99.90
13798;DHT22;6970;51.340;3.240;2022-09-09T11:39:51;17.70;99.90
13798;DHT22;6970;51.340;3.240;2022-09-09T11:42:18;17.80;99.90
13798;DHT22;6970;51.340;3.240;2022-09-09T11:44:46;17.80;99.90
13798;DHT22;6970;51.340;3.240;2022-09-09T11:47:31;17.80;99.90
13798;DHT22;6970;51.340;3.240;2022-09-09T11:52:46;17.80;99.90
13798;DHT22;6970;51.340;3.240;2022-09-09T11:55:28;17.80;99.90
13798;DHT22;6970;51.340;3.240;2022-09-09T11:58:16;17.80;99.90
13798;DHT22;6970;51.340;3.240;2022-09-09T12:00:46;17.80;99.90
13798;DHT22;6970;51.340;3.240;2022-09-09T12:03:33;17.80;99.90
13798;DHT22;6970;51.340;3.240;2022-09-09T12:09:15;17.50;99.90
13798;DHT22;6970;51.340;3.240;2022-09-09T12:11:44;17.50;99.90
13798;DHT22;6970;51.340;3.240;2022-09-09T12:17:22;17.70;99.90
13798;DHT22;6970;51.340;3.240;2022-09-09T12:20:11;17.80;99.90
13798;DHT22;6970;51.340;3.240;2022-09-09T12:28:23;18.20;99.90
13798;DHT22;6970;51.340;3.240;2022-09-09T12:33:45;18.50;99.90
13798;DHT22;6970;51.340;3.240;2022-09-09T12:36:21;18.60;99.90
13798;DHT22;6970;51.340;3.240;2022-09-09T12:38:48;18.80;99.90
13798;DHT22;6970;51.340;3.240;2022-09-09T12:41:26;19.00;99.90
13798;DHT22;6970;51.340;3.240;2022-09-09T12:44:08;19.30;99.90
13798;DHT22;6970;51.340;3.240;2022-09-09T12:46:41;19.50;99.90
13798;DHT22;6970;51.340;3.240;2022-09-09T12:49:29;19.60;99.90
13798;DHT22;6970;51.340;3.240;2022-09-09T12:52:14;19.60;99.90
13798;DHT22;6970;51.340;3.240;2022-09-09T12:54:45;19.50;99.90
13798;DHT22;6970;51.340;3.240;2022-09-09T12:57:14;19.40;99.90
13798;DHT22;6970;51.340;3.240;2022-09-09T12:59:43;19.20;99.90
13798;DHT22;6970;51.340;3.240;2022-09-09T13:02:22;19.10;99.90
13798;DHT22;6970;51.340;3.240;2022-09-09T13:04:50;19.00;99.90
13798;DHT22;6970;51.340;3.240;2022-09-09T13:07:19;19.00;99.90
13798;DHT22;6970;51.340;3.240;2022-09-09T13:09:47;19.00;99.90
13798;DHT22;6970;51.340;3.240;2022-09-09T13:12:21;19.40;99.90
13798;DHT22;6970;51.340;3.240;2022-09-09T13:14:54;19.70;99.90
13798;DHT22;6970;51.340;3.240;2022-09-09T13:17:28;19.80;99.90
13798;DHT22;6970;51.340;3.240;2022-09-09T13:19:58;19.70;99.90
13798;DHT22;6970;51.340;3.240;2022-09-09T13:22:37;19.50;99.90
13798;DHT22;6970;51.340;3.240;2022-09-09T13:27:38;19.30;99.90
13798;DHT22;6970;51.340;3.240;2022-09-09T13:30:31;19.30;99.90
13798;DHT22;6970;51.340;3.240;2022-09-09T13:35:50;18.80;99.90
13798;DHT22;6970;51.340;3.240;2022-09-09T13:38:19;18.60;99.90
13798;DHT22;6970;51.340;3.240;2022-09-09T13:41:03;18.40;99.90
13798;DHT22;6970;51.340;3.240;2022-09-09T13:43:44;18.50;99.90
13798;DHT22;6970;51.340;3.240;2022-09-09T13:46:40;18.70;99.90
13798;DHT22;6970;51.340;3.240;2022-09-09T13:52:02;19.10;99.90
13798;DHT22;6970;51.340;3.240;2022-09-09T13:54:29;19.20;99.90
13798;DHT22;6970;51.340;3.240;2022-09-09T13:56:57;19.20;99.90
13798;DHT22;6970;51.340;3.240;2022-09-09T13:59:24;19.30;99.90
13798;DHT22;6970;51.340;3.240;2022-09-09T14:02:13;19.40;99.90
13798;DHT22;6970;51.340;3.240;2022-09-09T14:04:40;19.40;99.90
13798;DHT22;6970;51.340;3.240;2022-09-09T14:07:14;19.30;99.90
13798;DHT22;6970;51.340;3.240;2022-09-09T14:09:42;19.00;99.90
13798;DHT22;6970;51.340;3.240;2022-09-09T14:12:11;18.90;99.90
13798;DHT22;6970;51.340;3.240;2022-09-09T14:14:38;18.90;99.90
13798;DHT22;6970;51.340;3.240;2022-09-09T14:17:05;19.10;99.90
13798;DHT22;6970;51.340;3.240;2022-09-09T14:19:33;19.40;99.90
13798;DHT22;6970;51.340;3.240;2022-09-09T14:22:00;19.70;99.90
13798;DHT22;6970;51.340;3.240;2022-09-09T14:24:27;19.90;99.90
13798;DHT22;6970;51.340;3.240;2022-09-09T14:26:55;19.80;99.90
13798;DHT22;6970;51.340;3.240;2022-09-09T14:29:22;19.80;99.90
13798;DHT22;6970;51.340;3.240;2022-09-09T14:31:49;19.60;99.90
13798;DHT22;6970;51.340;3.240;2022-09-09T14:34:15;19.40;99.90
13798;DHT22;6970;51.340;3.240;2022-09-09T14:36:42;19.20;99.90
13798;DHT22;6970;51.340;3.240;2022-09-09T14:39:11;19.10;99.90
13798;DHT22;6970;51.340;3.240;2022-09-09T14:41:38;18.90;99.90
13798;DHT22;6970;51.340;3.240;2022-09-09T14:44:05;18.70;99.90
13798;DHT22;6970;51.340;3.240;2022-09-09T14:46:32;18.60;99.90
13798;DHT22;6970;51.340;3.240;2022-09-09T14:49:00;18.60;99.90
13798;DHT22;6970;51.340;3.240;2022-09-09T14:51:27;18.50;99.90
13798;DHT22;6970;51.340;3.240;2022-09-09T14:53:57;18.60;99.90
13798;DHT22;6970;51.340;3.240;2022-09-09T14:56:27;18.50;99.90
13798;DHT22;6970;51.340;3.240;2022-09-09T14:58:55;18.50;99.90
13798;DHT22;6970;51.340;3.240;2022-09-09T15:01:23;18.40;99.90
13798;DHT22;6970;51.340;3.240;2022-09-09T15:04:00;18.50;99.90
13798;DHT22;6970;51.340;3.240;2022-09-09T15:06:29;18.50;99.90
13798;DHT22;6970;51.340;3.240;2022-09-09T15:08:56;18.50;99.90
13798;DHT22;6970;51.340;3.240;2022-09-09T15:11:29;18.50;99.90
13798;DHT22;6970;51.340;3.240;2022-09-09T15:14:00;18.50;99.90
13798;DHT22;6970;51.340;3.240;2022-09-09T15:16:28;18.40;99.90
13798;DHT22;6970;51.340;3.240;2022-09-09T15:18:58;18.30;99.90
13798;DHT22;6970;51.340;3.240;2022-09-09T15:21:34;18.30;99.90
13798;DHT22;6970;51.340;3.240;2022-09-09T15:24:03;18.20;99.90
13798;DHT22;6970;51.340;3.240;2022-09-09T15:26:34;18.20;99.90
13798;DHT22;6970;51.340;3.240;2022-09-09T15:29:05;18.10;99.90
13798;DHT22;6970;51.340;3.240;2022-09-09T15:31:33;18.10;99.90
13798;DHT22;6970;51.340;3.240;2022-09-09T15:34:02;18.00;99.90
13798;DHT22;6970;51.340;3.240;2022-09-09T15:36:36;18.10;99.90
13798;DHT22;6970;51.340;3.240;2022-09-09T15:39:06;18.00;99.90
13798;DHT22;6970;51.340;3.240;2022-09-09T15:41:35;18.10;99.90
13798;DHT22;6970;51.340;3.240;2022-09-09T15:44:05;18.10;99.90
13798;DHT22;6970;51.340;3.240;2022-09-09T15:46:42;18.30;99.90
13798;DHT22;6970;51.340;3.240;2022-09-09T15:49:24;18.30;99.90
13798;DHT22;6970;51.340;3.240;2022-09-09T15:51:57;18.40;99.90
13798;DHT22;6970;51.340;3.240;2022-09-09T15:54:31;18.40;99.90
13798;DHT22;6970;51.340;3.240;2022-09-09T15:57:03;18.50;99.90
13798;DHT22;6970;51.340;3.240;2022-09-09T15:59:33;18.50;99.90
13798;DHT22;6970;51.340;3.240;2022-09-09T16:02:03;18.50;99.90
13798;DHT22;6970;51.340;3.240;2022-09-09T16:04:35;18.50;99.90
13798;DHT22;6970;51.340;3.240;2022-09-09T16:07:05;18.40;99.90
13798;DHT22;6970;51.340;3.240;2022-09-09T16:09:35;18.40;99.90
13798;DHT22;6970;51.340;3.240;2022-09-09T16:12:03;18.30;99.90
13798;DHT22;6970;51.340;3.240;2022-09-09T16:14:39;18.20;99.90
13798;DHT22;6970;51.340;3.240;2022-09-09T16:17:10;18.20;99.90
13798;DHT22;6970;51.340;3.240;2022-09-09T16:19:37;18.20;99.90
13798;DHT22;6970;51.340;3.240;2022-09-09T16:22:07;18.10;99.90
13798;DHT22;6970;51.340;3.240;2022-09-09T16:24:38;18.20;99.90
13798;DHT22;6970;51.340;3.240;2022-09-09T16:27:08;18.10;99.90
13798;DHT22;6970;51.340;3.240;2022-09-09T16:29:38;18.10;99.90
13798;DHT22;6970;51.340;3.240;2022-09-09T16:32:05;18.10;99.90
13798;DHT22;6970;51.340;3.240;2022-09-09T16:34:35;18.00;99.90
13798;DHT22;6970;51.340;3.240;2022-09-09T16:37:05;18.00;99.90
13798;DHT22;6970;51.340;3.240;2022-09-09T16:39:35;18.00;99.90
13798;DHT22;6970;51.340;3.240;2022-09-09T16:42:03;17.90;99.90
13798;DHT22;6970;51.340;3.240;2022-09-09T16:44:43;17.90;99.90
13798;DHT22;6970;51.340;3.240;2022-09-09T16:47:13;17.90;99.90
13798;DHT22;6970;51.340;3.240;2022-09-09T16:49:46;17.90;99.90
13798;DHT22;6970;51.340;3.240;2022-09-09T16:52:15;17.80;99.90
13798;DHT22;6970;51.340;3.240;2022-09-09T16:54:46;17.90;99.90
13798;DHT22;6970;51.340;3.240;2022-09-09T16:57:14;17.90;99.90
13798;DHT22;6970;51.340;3.240;2022-09-09T16:59:42;17.90;99.90
13798;DHT22;6970;51.340;3.240;2022-09-09T17:02:15;18.00;99.90
13798;DHT22;6970;51.340;3.240;2022-09-09T17:04:45;18.00;99.90
13798;DHT22;6970;51.340;3.240;2022-09-09T17:07:15;18.00;99.90
13798;DHT22;6970;51.340;3.240;2022-09-09T17:09:42;18.00;99.90
13798;DHT22;6970;51.340;3.240;2022-09-09T17:12:12;18.10;99.90
13798;DHT22;6970;51.340;3.240;2022-09-09T17:14:41;18.10;99.90
13798;DHT22;6970;51.340;3.240;2022-09-09T17:17:11;18.10;99.90
13798;DHT22;6970;51.340;3.240;2022-09-09T17:19:57;18.10;99.90
13798;DHT22;6970;51.340;3.240;2022-09-09T17:22:25;18.10;99.90
13798;DHT22;6970;51.340;3.240;2022-09-09T17:24:54;18.00;99.90
13798;DHT22;6970;51.340;3.240;2022-09-09T17:27:22;18.00;99.90
13798;DHT22;6970;51.340;3.240;2022-09-09T17:29:52;18.10;99.90
13798;DHT22;6970;51.340;3.240;2022-09-09T17:32:19;18.10;99.90
13798;DHT22;6970;51.340;3.240;2022-09-09T17:34:46;18.10;99.90
13798;DHT22;6970;51.340;3.240;2022-09-09T17:37:16;18.10;99.90
13798;DHT22;6970;51.340;3.240;2022-09-09T17:39:46;18.00;99.90
13798;DHT22;6970;51.340;3.240;2022-09-09T17:42:16;18.00;99.90
13798;DHT22;6970;51.340;3.240;2022-09-09T17:44:46;18.00;99.90
13798;DHT22;6970;51.340;3.240;2022-09-09T17:47:14;18.00;99.90
13798;DHT22;6970;51.340;3.240;2022-09-09T17:49:43;18.00;99.90
13798;DHT22;6970;51.340;3.240;2022-09-09T17:52:12;17.90;99.90
13798;DHT22;6970;51.340;3.240;2022-09-09T17:54:40;17.90;99.90
13798;DHT22;6970;51.340;3.240;2022-09-09T17:57:08;18.00;99.90
13798;DHT22;6970;51.340;3.240;2022-09-09T17:59:37;18.00;99.90
13798;DHT22;6970;51.340;3.240;2022-09-09T18:02:05;18.00;99.90
13798;DHT22;6970;51.340;3.240;2022-09-09T18:04:36;18.00;99.90
13798;DHT22;6970;51.340;3.240;2022-09-09T18:07:06;18.00;99.90
13798;DHT22;6970;51.340;3.240;2022-09-09T18:09:34;18.00;99.90
13798;DHT22;6970;51.340;3.240;2022-09-09T18:12:04;17.90;99.90
13798;DHT22;6970;51.340;3.240;2022-09-09T18:14:34;17.90;99.90
13798;DHT22;6970;51.340;3.240;2022-09-09T18:17:03;17.90;99.90
13798;DHT22;6970;51.340;3.240;2022-09-09T18:19:36;17.90;99.90
13798;DHT22;6970;51.340;3.240;2022-09-09T18:22:05;17.80;99.90
13798;DHT22;6970;51.340;3.240;2022-09-09T18:24:34;17.80;99.90
13798;DHT22;6970;51.340;3.240;2022-09-09T18:27:02;17.80;99.90
13798;DHT22;6970;51.340;3.240;2022-09-09T18:29:32;17.70;99.90
13798;DHT22;6970;51.340;3.240;2022-09-09T18:32:03;17.70;99.90
13798;DHT22;6970;51.340;3.240;2022-09-09T18:34:30;17.70;99.90